Rock Crest, California
Current Conditions -  °F | °C
As of 2:53 PM on Wednesday 17 Dec 2014 (Local Time) from KOVE Reporting Station
Overcast Overcast  
Wind Chill: 54°   Ceiling: 6500
Heat Index: 54°   Visibility: 10mi
Dew Point: 49°   Wind: 14mph
Humidity: 83%   Direction: 150°SSE
Pressure: 30.01"   Gusts: NA
Location:  39.9071°N, 121.345°W
Report Text: KOVE 172253Z AUTO 15012KT 10SM OVC065 12/09 A3001 RMK AO2 SLP166 T01220094
Loading
Personal Weather Stations






























Interactive Weather Map New forecast layout! Learn more

10-Day Weather Forecast

Advertisements
Track Severe Weather on mobile